BAW216 DTTA-YPPH
Flight info
| Callsign | BAW216 |
|---|---|
| Flight time | N/A |
| Altitude | 31000 |
| Route | DIDON2A DIDON UM978 SONAK DCT SOPIR DCT EVIRA DCT ABNAT DCT DEMAG UM978 SIT UM1 GUDIS/N0476F330 UM1 KAVOS DCT BIRES N134 TULEP N318 NEVOL Q255 LUDEP P559 ALPOT M691 SILBA H979 DASVA N318 VELAM P708 VUTAN N318 KAPUM N685 RURAL B415 SIXIV N318 TOLDA P570 BONOM/N0484F350 P570 KITAL L894 SUNAN/N0478F370 L894 SINAM/N0465F390 L894 MERIB T12 KAGMI |
| Aircraft | A346/H-SDE2E3FGHIJ3J4J5M1RWXY/LB1D1 |
Departure
| Time | 2026-05-08 21:33 |
|---|---|
| Airport | Tunis Carthage International Airport (DTTA) |
Arrival
| Time | N/A |
|---|---|
| Airport | Perth International Airport (YPPH) |
| Time | Latitude | Longitude | Altitude | Speed | Heading |
|---|---|---|---|---|---|
| 2026-05-08 20:48 | 36.84515 | 10.21953 | 38 ft | 0 kts | 356° |
| 2026-05-08 21:18 | 36.84491 | 10.21955 | 38 ft | 4 kts | 356° |
| 2026-05-08 21:18 | 36.84468 | 10.21957 | 35 ft | 4 kts | 2° |
| 2026-05-08 21:19 | 36.84450 | 10.21951 | 37 ft | 4 kts | 38° |
| 2026-05-08 21:19 | 36.84440 | 10.21933 | 33 ft | 4 kts | 77° |
| 2026-05-08 21:19 | 36.84437 | 10.21901 | 36 ft | 4 kts | 90° |
| 2026-05-08 21:19 | 36.84438 | 10.21876 | 34 ft | 1 kts | 92° |
| 2026-05-08 21:20 | 36.84438 | 10.21872 | 34 ft | 0 kts | 92° |
| 2026-05-08 21:25 | 36.84438 | 10.21875 | 38 ft | 1 kts | 91° |
| 2026-05-08 21:25 | 36.84438 | 10.21896 | 38 ft | 0 kts | 86° |
| 2026-05-08 21:26 | 36.84439 | 10.21916 | 38 ft | 6 kts | 87° |
| 2026-05-08 21:27 | 36.84448 | 10.21983 | 38 ft | 9 kts | 73° |
| 2026-05-08 21:27 | 36.84481 | 10.22058 | 38 ft | 11 kts | 57° |
| 2026-05-08 21:27 | 36.84497 | 10.22160 | 38 ft | 13 kts | 95° |
| 2026-05-08 21:27 | 36.84455 | 10.22223 | 38 ft | 2 kts | 191° |
| 2026-05-08 21:28 | 36.84427 | 10.22219 | 38 ft | 6 kts | 184° |
| 2026-05-08 21:28 | 36.84374 | 10.22214 | 38 ft | 9 kts | 185° |
| 2026-05-08 21:28 | 36.84298 | 10.22203 | 39 ft | 12 kts | 188° |
| 2026-05-08 21:28 | 36.84205 | 10.22184 | 39 ft | 15 kts | 192° |
| 2026-05-08 21:29 | 36.84098 | 10.22152 | 39 ft | 17 kts | 194° |
| 2026-05-08 21:29 | 36.83986 | 10.22118 | 39 ft | 15 kts | 191° |
| 2026-05-08 21:29 | 36.83900 | 10.22108 | 38 ft | 10 kts | 165° |
| 2026-05-08 21:29 | 36.83873 | 10.22154 | 38 ft | 6 kts | 98° |
| 2026-05-08 21:30 | 36.83874 | 10.22197 | 39 ft | 4 kts | 82° |
| 2026-05-08 21:30 | 36.83874 | 10.22200 | 39 ft | 0 kts | 81° |
| 2026-05-08 21:31 | 36.83879 | 10.22228 | 39 ft | 9 kts | 75° |
| 2026-05-08 21:31 | 36.83906 | 10.22303 | 39 ft | 4 kts | 66° |
| 2026-05-08 21:31 | 36.83929 | 10.22361 | 39 ft | 10 kts | 50° |
| 2026-05-08 21:31 | 36.83944 | 10.22372 | 39 ft | 9 kts | 21° |
| 2026-05-08 21:32 | 36.84179 | 10.22445 | 39 ft | 61 kts | 12° |
| 2026-05-08 21:32 | 36.84750 | 10.22593 | 39 ft | 107 kts | 11° |
| 2026-05-08 21:32 | 36.85611 | 10.22832 | 38 ft | 146 kts | 11° |
| 2026-05-08 21:32 | 36.86713 | 10.23116 | 42 ft | 173 kts | 353° |
| 2026-05-08 21:33 | 36.87923 | 10.23179 | 295 ft | 176 kts | 355° |
| 2026-05-08 21:33 | 36.89185 | 10.23242 | 641 ft | 186 kts | 356° |
| 2026-05-08 21:33 | 36.90468 | 10.23580 | 1049 ft | 191 kts | 18° |
| 2026-05-08 21:33 | 36.91722 | 10.24141 | 1539 ft | 192 kts | 17° |
| 2026-05-08 21:34 | 36.93026 | 10.24661 | 1964 ft | 200 kts | 18° |
| 2026-05-08 21:34 | 36.94405 | 10.25112 | 2262 ft | 208 kts | 5° |
| 2026-05-08 21:34 | 36.95795 | 10.24700 | 2494 ft | 212 kts | 323° |
| 2026-05-08 21:34 | 36.96685 | 10.23257 | 2842 ft | 212 kts | 286° |
| 2026-05-08 21:35 | 36.96718 | 10.21433 | 3212 ft | 213 kts | 253° |
| 2026-05-08 21:35 | 36.95901 | 10.19912 | 3577 ft | 215 kts | 218° |
| 2026-05-08 21:35 | 36.94533 | 10.19169 | 3976 ft | 216 kts | 198° |
| 2026-05-08 21:35 | 36.93062 | 10.18704 | 4361 ft | 218 kts | 196° |
| 2026-05-08 21:36 | 36.91550 | 10.18293 | 4754 ft | 222 kts | 192° |
| 2026-05-08 21:36 | 36.90010 | 10.18462 | 5051 ft | 234 kts | 161° |
| 2026-05-08 21:36 | 36.88614 | 10.19556 | 5435 ft | 240 kts | 145° |
| 2026-05-08 21:36 | 36.87302 | 10.20876 | 5824 ft | 244 kts | 144° |
| 2026-05-08 21:37 | 36.85976 | 10.22230 | 6176 ft | 248 kts | 143° |
| 2026-05-08 21:37 | 36.84786 | 10.23831 | 6518 ft | 256 kts | 127° |
| 2026-05-08 21:37 | 36.83867 | 10.25792 | 6790 ft | 265 kts | 120° |
| 2026-05-08 21:37 | 36.83021 | 10.27852 | 7115 ft | 270 kts | 119° |
| 2026-05-08 21:38 | 36.82142 | 10.30001 | 7305 ft | 284 kts | 118° |
| 2026-05-08 21:38 | 36.81213 | 10.32237 | 7528 ft | 296 kts | 120° |
| 2026-05-08 21:38 | 36.80229 | 10.34562 | 7782 ft | 308 kts | 120° |
| 2026-05-08 21:38 | 36.79206 | 10.36945 | 8188 ft | 312 kts | 121° |
| 2026-05-08 21:39 | 36.78329 | 10.39434 | 8650 ft | 317 kts | 101° |
| 2026-05-08 21:39 | 36.78334 | 10.42184 | 9012 ft | 322 kts | 74° |
| 2026-05-08 21:39 | 36.78903 | 10.44934 | 9272 ft | 333 kts | 73° |
| 2026-05-08 21:39 | 36.79508 | 10.47771 | 9618 ft | 341 kts | 73° |
| 2026-05-08 21:40 | 36.80122 | 10.50649 | 10095 ft | 344 kts | 76° |
| 2026-05-08 21:40 | 36.80326 | 10.53647 | 10419 ft | 353 kts | 97° |
| 2026-05-08 21:40 | 36.79840 | 10.56704 | 10645 ft | 363 kts | 107° |
| 2026-05-08 21:41 | 36.78433 | 10.62974 | 11060 ft | 387 kts | 107° |
| 2026-05-08 21:41 | 36.77739 | 10.66273 | 11268 ft | 399 kts | 105° |
| 2026-05-08 21:41 | 36.77060 | 10.69690 | 11475 ft | 410 kts | 105° |
| 2026-05-08 21:41 | 36.76396 | 10.73138 | 11760 ft | 419 kts | 104° |
| 2026-05-08 21:42 | 36.75721 | 10.76706 | 12250 ft | 422 kts | 104° |
| 2026-05-08 21:42 | 36.75047 | 10.80289 | 12767 ft | 425 kts | 104° |
| 2026-05-08 21:42 | 36.74368 | 10.83895 | 13258 ft | 428 kts | 104° |
| 2026-05-08 21:42 | 36.73683 | 10.87525 | 13712 ft | 431 kts | 104° |
| 2026-05-08 21:43 | 36.72989 | 10.91191 | 14120 ft | 435 kts | 104° |
| 2026-05-08 21:43 | 36.72289 | 10.94880 | 14512 ft | 438 kts | 104° |
| 2026-05-08 21:43 | 36.71583 | 10.98599 | 14911 ft | 441 kts | 104° |
| 2026-05-08 21:43 | 36.70870 | 11.02347 | 15313 ft | 444 kts | 104° |
| 2026-05-08 21:44 | 36.70164 | 11.06108 | 15710 ft | 447 kts | 104° |
| 2026-05-08 21:44 | 36.69464 | 11.09906 | 16105 ft | 450 kts | 104° |
| 2026-05-08 21:44 | 36.68771 | 11.13670 | 16491 ft | 453 kts | 104° |
| 2026-05-08 21:44 | 36.68062 | 11.17516 | 16877 ft | 456 kts | 104° |
| 2026-05-08 21:45 | 36.67346 | 11.21383 | 17259 ft | 459 kts | 104° |
| 2026-05-08 21:45 | 36.66625 | 11.25272 | 17644 ft | 462 kts | 105° |
| 2026-05-08 21:45 | 36.65892 | 11.29212 | 18020 ft | 464 kts | 105° |
| 2026-05-08 21:45 | 36.65160 | 11.33146 | 18376 ft | 467 kts | 105° |
| 2026-05-08 21:46 | 36.64422 | 11.37104 | 18706 ft | 469 kts | 105° |
| 2026-05-08 21:46 | 36.63676 | 11.41073 | 19048 ft | 472 kts | 105° |
| 2026-05-08 21:46 | 36.62928 | 11.45062 | 19381 ft | 474 kts | 105° |
| 2026-05-08 21:46 | 36.62291 | 11.49112 | 19700 ft | 477 kts | 101° |
| 2026-05-08 21:47 | 36.61861 | 11.53234 | 20054 ft | 481 kts | 97° |
| 2026-05-08 21:47 | 36.61627 | 11.57410 | 20385 ft | 484 kts | 95° |
| 2026-05-08 21:47 | 36.61452 | 11.61610 | 20717 ft | 486 kts | 94° |
| 2026-05-08 21:47 | 36.61284 | 11.65842 | 21046 ft | 489 kts | 94° |
| 2026-05-08 21:48 | 36.61112 | 11.70084 | 21360 ft | 492 kts | 95° |
| 2026-05-08 21:48 | 36.60933 | 11.74353 | 21696 ft | 494 kts | 95° |
| 2026-05-08 21:48 | 36.60748 | 11.78578 | 22013 ft | 496 kts | 95° |
| 2026-05-08 21:48 | 36.60555 | 11.82901 | 22342 ft | 499 kts | 95° |
| 2026-05-08 21:49 | 36.60358 | 11.87228 | 22661 ft | 501 kts | 95° |
| 2026-05-08 21:49 | 36.60158 | 11.91576 | 22975 ft | 504 kts | 95° |
| 2026-05-08 21:49 | 36.59956 | 11.95946 | 23284 ft | 506 kts | 95° |
| 2026-05-08 21:49 | 36.59751 | 12.00336 | 23590 ft | 508 kts | 95° |
| 2026-05-08 21:50 | 36.59544 | 12.04736 | 23847 ft | 511 kts | 95° |
| 2026-05-08 21:50 | 36.59331 | 12.09165 | 24095 ft | 513 kts | 95° |
| 2026-05-08 21:50 | 36.59118 | 12.13615 | 24348 ft | 515 kts | 95° |
| 2026-05-08 21:50 | 36.58903 | 12.18074 | 24599 ft | 517 kts | 95° |
| 2026-05-08 21:51 | 36.58686 | 12.22550 | 24842 ft | 519 kts | 95° |
| 2026-05-08 21:51 | 36.58467 | 12.27043 | 25094 ft | 520 kts | 95° |
| 2026-05-08 21:51 | 36.58247 | 12.31497 | 25334 ft | 522 kts | 95° |
| 2026-05-08 21:51 | 36.58022 | 12.36025 | 25577 ft | 524 kts | 95° |
| 2026-05-08 21:52 | 36.57795 | 12.40562 | 25811 ft | 526 kts | 95° |
| 2026-05-08 21:52 | 36.57564 | 12.45117 | 26042 ft | 528 kts | 95° |
| 2026-05-08 21:52 | 36.57330 | 12.49701 | 26272 ft | 530 kts | 94° |
| 2026-05-08 21:52 | 36.57096 | 12.54291 | 26529 ft | 532 kts | 95° |
| 2026-05-08 21:53 | 36.56860 | 12.58897 | 26736 ft | 534 kts | 95° |
| 2026-05-08 21:53 | 36.56620 | 12.63534 | 26937 ft | 537 kts | 95° |
| 2026-05-08 21:53 | 36.56376 | 12.68183 | 27150 ft | 539 kts | 95° |
| 2026-05-08 21:53 | 36.56130 | 12.72841 | 27372 ft | 540 kts | 95° |
| 2026-05-08 21:54 | 36.55882 | 12.77517 | 27647 ft | 540 kts | 95° |
| 2026-05-08 21:54 | 36.55632 | 12.82176 | 27982 ft | 539 kts | 94° |
| 2026-05-08 21:54 | 36.55381 | 12.86832 | 28313 ft | 538 kts | 94° |
| 2026-05-08 21:54 | 36.55129 | 12.91493 | 28619 ft | 538 kts | 94° |
| 2026-05-08 21:55 | 36.54875 | 12.96137 | 28917 ft | 538 kts | 94° |
| 2026-05-08 21:55 | 36.54621 | 13.00775 | 29210 ft | 537 kts | 94° |
| 2026-05-08 21:55 | 36.54364 | 13.05425 | 29477 ft | 538 kts | 94° |
| 2026-05-08 21:56 | 36.53843 | 13.14734 | 29872 ft | 540 kts | 94° |
| 2026-05-08 21:56 | 36.53578 | 13.19409 | 30078 ft | 541 kts | 94° |
| 2026-05-08 21:56 | 36.53311 | 13.24085 | 30268 ft | 542 kts | 94° |
| 2026-05-08 21:56 | 36.53041 | 13.28777 | 30449 ft | 543 kts | 94° |
| 2026-05-08 21:57 | 36.52769 | 13.33474 | 30636 ft | 544 kts | 94° |
| 2026-05-08 21:57 | 36.52499 | 13.38114 | 30811 ft | 545 kts | 94° |
| 2026-05-08 21:57 | 36.52222 | 13.42819 | 30987 ft | 545 kts | 94° |
| 2026-05-08 21:58 | 36.51662 | 13.52256 | 31045 ft | 547 kts | 94° |
| 2026-05-08 21:58 | 36.51094 | 13.61700 | 31055 ft | 547 kts | 95° |
| 2026-05-08 21:59 | 36.50516 | 13.71156 | 31047 ft | 547 kts | 95° |
| 2026-05-08 21:59 | 36.49710 | 13.80554 | 31047 ft | 547 kts | 100° |
| 2026-05-08 22:00 | 36.48401 | 13.88526 | 31049 ft | 545 kts | 104° |
| 2026-05-08 22:00 | 36.46600 | 13.98189 | 31048 ft | 544 kts | 104° |
| 2026-05-08 22:01 | 36.44615 | 14.08844 | 31046 ft | 544 kts | 104° |
| 2026-05-08 22:01 | 36.42913 | 14.18013 | 31043 ft | 544 kts | 104° |
| 2026-05-08 22:02 | 36.41484 | 14.25692 | 31043 ft | 543 kts | 104° |
| 2026-05-08 22:02 | 36.39777 | 14.34840 | 31047 ft | 543 kts | 104° |
| 2026-05-08 22:03 | 36.38072 | 14.43924 | 31051 ft | 543 kts | 104° |
| 2026-05-08 22:03 | 36.36348 | 14.53058 | 31048 ft | 543 kts | 104° |
| 2026-05-08 22:04 | 36.34619 | 14.62189 | 31049 ft | 543 kts | 104° |
| 2026-05-08 22:04 | 36.32884 | 14.71320 | 31045 ft | 543 kts | 104° |
| 2026-05-08 22:05 | 36.31144 | 14.80439 | 31045 ft | 543 kts | 104° |
| 2026-05-08 22:05 | 36.29395 | 14.89566 | 31036 ft | 543 kts | 104° |
| 2026-05-08 22:06 | 36.27639 | 14.98671 | 31039 ft | 542 kts | 104° |
| 2026-05-08 22:06 | 36.25880 | 15.07778 | 31043 ft | 542 kts | 104° |
| 2026-05-08 22:07 | 36.24115 | 15.16871 | 31043 ft | 542 kts | 104° |
| 2026-05-08 22:07 | 36.22354 | 15.25907 | 31044 ft | 542 kts | 104° |
| 2026-05-08 22:08 | 36.20571 | 15.35002 | 31048 ft | 542 kts | 104° |
| 2026-05-08 22:08 | 36.18784 | 15.44088 | 31044 ft | 542 kts | 104° |
| 2026-05-08 22:09 | 36.16991 | 15.53164 | 31042 ft | 542 kts | 104° |
| 2026-05-08 22:09 | 36.15190 | 15.62241 | 31042 ft | 542 kts | 104° |
| 2026-05-08 22:10 | 36.13384 | 15.71299 | 31040 ft | 541 kts | 104° |
| 2026-05-08 22:10 | 36.11574 | 15.80344 | 31038 ft | 540 kts | 104° |
| 2026-05-08 22:11 | 36.09759 | 15.89379 | 31042 ft | 540 kts | 104° |
| 2026-05-08 22:11 | 36.07936 | 15.98414 | 31037 ft | 540 kts | 104° |
| 2026-05-08 22:12 | 36.06111 | 16.07416 | 31038 ft | 539 kts | 104° |
| 2026-05-08 22:12 | 36.04295 | 16.16344 | 31036 ft | 538 kts | 104° |
| 2026-05-08 22:13 | 36.02461 | 16.25319 | 31035 ft | 538 kts | 105° |
| 2026-05-08 22:13 | 36.00619 | 16.34300 | 31040 ft | 538 kts | 105° |
| 2026-05-08 22:14 | 35.98767 | 16.43283 | 31045 ft | 537 kts | 105° |
| 2026-05-08 22:14 | 35.96918 | 16.52222 | 31043 ft | 537 kts | 105° |
| 2026-05-08 22:15 | 35.95061 | 16.61165 | 31038 ft | 537 kts | 105° |
| 2026-05-08 22:15 | 35.93196 | 16.70109 | 31044 ft | 537 kts | 105° |
| 2026-05-08 22:16 | 35.91328 | 16.79027 | 31042 ft | 536 kts | 105° |
| 2026-05-08 22:16 | 35.89516 | 16.87966 | 31041 ft | 536 kts | 102° |
| 2026-05-08 22:17 | 35.88369 | 16.96986 | 31040 ft | 535 kts | 95° |
| 2026-05-08 22:17 | 35.88060 | 17.06153 | 31042 ft | 534 kts | 89° |
| 2026-05-08 22:18 | 35.88084 | 17.15328 | 31042 ft | 534 kts | 88° |
| 2026-05-08 22:18 | 35.88098 | 17.24504 | 31039 ft | 534 kts | 89° |
| 2026-05-08 22:19 | 35.88086 | 17.33670 | 31043 ft | 534 kts | 89° |
| 2026-05-08 22:19 | 35.88059 | 17.42842 | 31039 ft | 534 kts | 89° |
| 2026-05-08 22:20 | 35.88023 | 17.52009 | 31041 ft | 533 kts | 89° |
| 2026-05-08 22:20 | 35.87982 | 17.61173 | 31044 ft | 533 kts | 89° |
| 2026-05-08 22:21 | 35.87934 | 17.70275 | 31044 ft | 533 kts | 89° |
| 2026-05-08 22:21 | 35.87877 | 17.79443 | 31049 ft | 533 kts | 89° |
| 2026-05-08 22:22 | 35.87814 | 17.88606 | 31063 ft | 533 kts | 89° |
| 2026-05-08 22:22 | 35.87749 | 17.97774 | 31046 ft | 534 kts | 89° |
| 2026-05-08 22:23 | 35.87671 | 18.06952 | 31045 ft | 534 kts | 89° |
| 2026-05-08 22:23 | 35.87587 | 18.16128 | 31040 ft | 534 kts | 89° |
| 2026-05-08 22:24 | 35.87497 | 18.25245 | 31046 ft | 534 kts | 89° |
| 2026-05-08 22:24 | 35.87399 | 18.34425 | 31052 ft | 534 kts | 89° |
| 2026-05-08 22:25 | 35.87294 | 18.43603 | 31049 ft | 534 kts | 89° |
| 2026-05-08 22:25 | 35.87182 | 18.52784 | 31042 ft | 534 kts | 89° |
| 2026-05-08 22:26 | 35.87063 | 18.61958 | 31047 ft | 534 kts | 89° |
| 2026-05-08 22:26 | 35.86938 | 18.71128 | 31054 ft | 534 kts | 89° |
| 2026-05-08 22:27 | 35.86805 | 18.80307 | 31049 ft | 534 kts | 89° |
| 2026-05-08 22:27 | 35.86664 | 18.89476 | 31045 ft | 534 kts | 89° |
| 2026-05-08 22:28 | 35.86520 | 18.98580 | 31050 ft | 534 kts | 89° |
| 2026-05-08 22:28 | 35.86246 | 19.07729 | 31060 ft | 535 kts | 94° |
| 2026-05-08 22:29 | 35.85217 | 19.16824 | 31046 ft | 536 kts | 100° |
| 2026-05-08 22:29 | 35.83764 | 19.25836 | 31050 ft | 535 kts | 101° |
| 2026-05-08 22:30 | 35.82293 | 19.34848 | 31050 ft | 535 kts | 101° |
| 2026-05-08 22:30 | 35.80831 | 19.43863 | 31044 ft | 535 kts | 101° |
| 2026-05-08 22:31 | 35.79370 | 19.52861 | 31048 ft | 535 kts | 101° |
| 2026-05-08 22:31 | 35.77905 | 19.61869 | 31049 ft | 535 kts | 101° |
| 2026-05-08 22:32 | 35.76434 | 19.70864 | 31049 ft | 535 kts | 101° |
| 2026-05-08 22:32 | 35.74956 | 19.79857 | 31048 ft | 535 kts | 101° |
| 2026-05-08 22:33 | 35.73471 | 19.88839 | 31047 ft | 534 kts | 101° |
| 2026-05-08 22:33 | 35.71983 | 19.97806 | 31048 ft | 534 kts | 101° |
| 2026-05-08 22:34 | 35.70501 | 20.06693 | 31042 ft | 534 kts | 101° |
| 2026-05-08 22:34 | 35.69001 | 20.15646 | 31045 ft | 534 kts | 101° |
| 2026-05-08 22:35 | 35.67497 | 20.24578 | 31051 ft | 532 kts | 101° |
| 2026-05-08 22:35 | 35.65987 | 20.33502 | 31054 ft | 532 kts | 101° |
| 2026-05-08 22:36 | 35.64471 | 20.42421 | 31051 ft | 532 kts | 101° |
| 2026-05-08 22:36 | 35.62949 | 20.51328 | 31047 ft | 531 kts | 101° |
| 2026-05-08 22:37 | 35.61424 | 20.60212 | 31051 ft | 529 kts | 101° |
| 2026-05-08 22:37 | 35.59898 | 20.69068 | 31053 ft | 529 kts | 101° |
| 2026-05-08 22:38 | 35.58361 | 20.77942 | 31054 ft | 529 kts | 101° |
| 2026-05-08 22:38 | 35.56822 | 20.86789 | 31053 ft | 528 kts | 101° |
| 2026-05-08 22:39 | 35.55288 | 20.95560 | 31058 ft | 528 kts | 101° |
| 2026-05-08 22:39 | 35.53739 | 21.04376 | 31058 ft | 528 kts | 101° |
| 2026-05-08 22:40 | 35.52191 | 21.13196 | 31056 ft | 527 kts | 100° |
| 2026-05-08 22:40 | 35.51068 | 21.22085 | 31056 ft | 525 kts | 96° |
| 2026-05-08 22:41 | 35.50145 | 21.31001 | 31058 ft | 525 kts | 96° |
| 2026-05-08 22:41 | 35.49216 | 21.39905 | 31062 ft | 525 kts | 96° |
| 2026-05-08 22:42 | 35.48277 | 21.48757 | 31067 ft | 525 kts | 96° |
| 2026-05-08 22:42 | 35.47323 | 21.57651 | 31063 ft | 525 kts | 96° |
| 2026-05-08 22:43 | 35.46360 | 21.66548 | 31065 ft | 525 kts | 96° |
| 2026-05-08 22:43 | 35.45390 | 21.75453 | 31087 ft | 525 kts | 96° |
| 2026-05-08 22:44 | 35.44413 | 21.84365 | 31068 ft | 526 kts | 96° |
| 2026-05-08 22:44 | 35.43431 | 21.93260 | 31065 ft | 525 kts | 96° |
| 2026-05-08 22:45 | 35.42442 | 22.02153 | 31067 ft | 525 kts | 97° |
| 2026-05-08 22:45 | 35.41447 | 22.11039 | 31074 ft | 525 kts | 97° |
| 2026-05-08 22:46 | 35.40452 | 22.19869 | 31074 ft | 525 kts | 97° |
| 2026-05-08 22:46 | 35.39443 | 22.28752 | 31075 ft | 525 kts | 97° |
| 2026-05-08 22:47 | 35.38429 | 22.37621 | 31075 ft | 525 kts | 97° |
| 2026-05-08 22:47 | 35.37412 | 22.46486 | 31083 ft | 525 kts | 97° |
| 2026-05-08 22:48 | 35.36389 | 22.55356 | 31081 ft | 525 kts | 97° |
| 2026-05-08 22:48 | 35.35355 | 22.64234 | 31076 ft | 525 kts | 97° |
| 2026-05-08 22:49 | 35.34316 | 22.73092 | 31086 ft | 525 kts | 97° |
| 2026-05-08 22:49 | 35.32745 | 22.86415 | 31093 ft | 526 kts | 97° |
| 2026-05-08 22:50 | 35.31866 | 22.93798 | 31091 ft | 526 kts | 98° |
| 2026-05-08 22:50 | 35.30805 | 23.02655 | 31089 ft | 526 kts | 98° |
| 2026-05-08 22:51 | 35.29561 | 23.12976 | 31086 ft | 526 kts | 98° |
| 2026-05-08 22:51 | 35.28484 | 23.21860 | 31100 ft | 527 kts | 98° |
| 2026-05-08 22:52 | 35.27575 | 23.29306 | 31086 ft | 527 kts | 98° |